Time;durP1;ratioP1;P1;durP2;ratioP2;P2;SDS_P1;SDS_P2;PMS_P1;PMS_P2;Temp;Humidity;BMP_temperature;BMP_pressure;BME280_temperature;BME280_humidity;BME280_pressure;Samples;Min_cycle;Max_cycle;Signal;HPM_P1;HPM_P2
2021/06/25 00:00:07;;;;;;;13.15;7.82;;;16.90;99.90;;;;;;4913811;29;20459;-82
2021/06/25 00:02:33;;;;;;;11.90;7.47;;;16.90;99.90;;;;;;4914657;29;20080;-81
2021/06/25 00:04:59;;;;;;;13.00;7.78;;;16.90;99.90;;;;;;4917108;29;20028;-81
2021/06/25 00:07:24;;;;;;;10.32;6.97;;;16.90;99.90;;;;;;4916276;29;20028;-81
2021/06/25 00:09:50;;;;;;;16.17;8.20;;;16.90;99.90;;;;;;4916953;29;20031;-81
2021/06/25 00:12:16;;;;;;;13.25;7.72;;;16.90;99.90;;;;;;4916319;29;20028;-81
2021/06/25 00:14:41;;;;;;;13.18;7.85;;;16.90;99.90;;;;;;4916813;29;20039;-81
2021/06/25 00:17:07;;;;;;;10.43;7.35;;;16.80;99.90;;;;;;4916147;29;20043;-81
2021/06/25 00:19:33;;;;;;;17.60;8.65;;;16.80;99.90;;;;;;4916533;29;20012;-81
2021/06/25 00:21:59;;;;;;;12.20;8.13;;;16.80;99.90;;;;;;4902952;29;20032;-81
2021/06/25 00:24:25;;;;;;;12.30;7.75;;;16.80;99.90;;;;;;4915467;29;20020;-81
2021/06/25 00:26:51;;;;;;;12.10;7.20;;;16.80;99.90;;;;;;4916506;29;20270;-81
2021/06/25 00:29:18;;;;;;;12.27;7.93;;;16.80;99.90;;;;;;4916417;29;20237;-81
2021/06/25 00:31:44;;;;;;;12.60;7.47;;;16.70;99.90;;;;;;4930444;29;20400;-81
2021/06/25 00:34:09;;;;;;;12.68;7.97;;;16.70;99.90;;;;;;4916586;29;20115;-81
2021/06/25 00:36:35;;;;;;;16.38;8.30;;;16.60;99.90;;;;;;4915606;29;20516;-81
2021/06/25 00:39:01;;;;;;;12.38;7.80;;;16.60;99.90;;;;;;4916741;29;20021;-81
2021/06/25 00:41:26;;;;;;;13.23;8.13;;;16.60;99.90;;;;;;4915800;29;20103;-81
2021/06/25 00:43:52;;;;;;;10.43;8.07;;;16.60;99.90;;;;;;4916219;29;20020;-81
2021/06/25 00:46:19;;;;;;;13.05;8.25;;;16.60;99.90;;;;;;4915823;29;20086;-81
2021/06/25 00:48:44;;;;;;;10.80;7.38;;;16.50;99.90;;;;;;4915778;29;20048;-81
2021/06/25 00:51:10;;;;;;;11.30;7.20;;;16.50;99.90;;;;;;4915819;29;20468;-81
2021/06/25 00:53:36;;;;;;;12.13;8.00;;;16.40;99.90;;;;;;4916122;29;20099;-82
2021/06/25 00:56:02;;;;;;;12.63;8.07;;;16.40;99.90;;;;;;4915632;29;20067;-81
2021/06/25 00:58:27;;;;;;;13.13;7.82;;;16.40;99.90;;;;;;4916030;29;20056;-81
2021/06/25 01:00:53;;;;;;;13.63;7.85;;;16.40;99.90;;;;;;4914373;29;20036;-81
2021/06/25 01:03:19;;;;;;;8.98;7.18;;;16.40;99.90;;;;;;4915559;29;20023;-81
2021/06/25 01:05:45;;;;;;;14.63;8.05;;;16.30;99.90;;;;;;4915257;29;20029;-81
2021/06/25 01:08:11;;;;;;;12.25;7.60;;;16.40;99.90;;;;;;4911956;29;20524;-81
2021/06/25 01:10:38;;;;;;;15.05;7.40;;;16.30;99.90;;;;;;4915874;29;20493;-81
2021/06/25 01:13:08;;;;;;;9.75;7.38;;;16.30;99.90;;;;;;4914839;29;20485;-81
2021/06/25 01:15:34;;;;;;;14.00;8.05;;;16.30;99.90;;;;;;4914963;29;20059;-81
2021/06/25 01:18:00;;;;;;;12.02;7.65;;;16.30;99.90;;;;;;4915309;29;20477;-81
2021/06/25 01:20:28;;;;;;;11.63;7.35;;;16.20;99.90;;;;;;4915273;29;20061;-81
2021/06/25 01:22:54;;;;;;;13.07;7.55;;;16.30;99.90;;;;;;4913556;29;20081;-81
2021/06/25 01:25:29;;;;;;;13.85;7.95;;;16.20;99.90;;;;;;4915212;29;20028;-82
2021/06/25 01:28:00;;;;;;;14.75;8.65;;;16.20;99.90;;;;;;4913970;29;20034;-82
2021/06/25 01:30:29;;;;;;;11.30;8.25;;;16.10;99.90;;;;;;4915296;29;20046;-81
2021/06/25 01:32:55;;;;;;;12.52;8.43;;;16.10;99.90;;;;;;4913694;29;20035;-81
2021/06/25 01:35:21;;;;;;;13.95;7.93;;;16.00;99.90;;;;;;4915073;29;20257;-81
2021/06/25 01:37:47;;;;;;;15.07;8.30;;;16.00;99.90;;;;;;4915391;29;20272;-81
2021/06/25 01:40:15;;;;;;;12.85;7.80;;;15.90;99.90;;;;;;4914915;29;20382;-81
2021/06/25 01:42:44;;;;;;;12.23;7.90;;;15.90;99.90;;;;;;4913259;29;20028;-81
2021/06/25 01:45:22;;;;;;;11.05;7.70;;;15.90;99.90;;;;;;4915452;29;20308;-81
2021/06/25 01:47:50;;;;;;;12.57;8.32;;;15.90;99.90;;;;;;4914552;29;20061;-81
2021/06/25 01:50:21;;;;;;;13.23;8.63;;;15.80;99.90;;;;;;4914596;29;20054;-81
2021/06/25 01:52:53;;;;;;;12.43;7.72;;;15.80;99.90;;;;;;4897844;29;20405;-81
2021/06/25 01:55:19;;;;;;;12.40;7.97;;;15.80;99.90;;;;;;4898052;29;20043;-81
2021/06/25 01:57:45;;;;;;;13.13;8.50;;;15.80;99.90;;;;;;4914990;29;20028;-81
2021/06/25 02:00:12;;;;;;;11.27;8.60;;;15.70;99.90;;;;;;4919693;29;20024;-81
2021/06/25 02:02:39;;;;;;;10.57;8.15;;;15.70;99.90;;;;;;4915012;29;20020;-81
2021/06/25 02:05:07;;;;;;;17.80;8.65;;;15.70;99.90;;;;;;4914752;29;20024;-81
2021/06/25 02:07:33;;;;;;;12.65;8.15;;;15.60;99.90;;;;;;4928735;29;20024;-81
2021/06/25 02:09:59;;;;;;;13.80;9.00;;;15.60;99.90;;;;;;4914860;29;20111;-81
2021/06/25 02:12:25;;;;;;;13.43;7.95;;;15.60;99.90;;;;;;4914241;29;20103;-81
2021/06/25 02:14:52;;;;;;;10.23;7.93;;;15.60;99.90;;;;;;4915037;29;20028;-81
2021/06/25 02:17:18;;;;;;;13.27;8.05;;;15.60;99.90;;;;;;4913859;29;20032;-81
2021/06/25 02:19:44;;;;;;;17.02;8.95;;;15.50;99.90;;;;;;4900869;29;20032;-81
2021/06/25 02:22:11;;;;;;;11.52;7.80;;;15.50;99.90;;;;;;4914080;29;20115;-81
2021/06/25 02:24:37;;;;;;;11.95;8.20;;;15.50;99.90;;;;;;4914080;29;20481;-81
2021/06/25 02:27:03;;;;;;;14.48;7.90;;;15.40;99.90;;;;;;4914220;29;20032;-81
2021/06/25 02:29:29;;;;;;;11.15;8.18;;;15.40;99.90;;;;;;4914467;29;20261;-81
2021/06/25 02:31:55;;;;;;;10.18;8.32;;;15.40;99.90;;;;;;4914168;29;20032;-81
2021/06/25 02:34:20;;;;;;;13.45;8.00;;;15.40;99.90;;;;;;4912742;29;20028;-81
2021/06/25 02:36:46;;;;;;;11.32;8.23;;;15.40;99.90;;;;;;4914031;29;20028;-81
2021/06/25 02:39:13;;;;;;;12.38;8.63;;;15.40;99.90;;;;;;4914379;29;20469;-81
2021/06/25 02:41:39;;;;;;;11.75;8.27;;;15.40;99.90;;;;;;4913544;29;20028;-81
2021/06/25 02:44:06;;;;;;;11.25;8.35;;;15.30;99.90;;;;;;4914189;29;20051;-81
2021/06/25 02:46:32;;;;;;;13.07;8.75;;;15.30;99.90;;;;;;4913604;29;20020;-81
2021/06/25 02:48:58;;;;;;;13.05;8.85;;;15.30;99.90;;;;;;4912847;29;20048;-82
2021/06/25 02:51:23;;;;;;;13.85;8.60;;;15.30;99.90;;;;;;4913723;29;20059;-81
2021/06/25 02:53:49;;;;;;;9.73;7.93;;;15.30;99.90;;;;;;4914096;29;20500;-81
2021/06/25 02:56:15;;;;;;;15.23;8.75;;;15.30;99.90;;;;;;4913479;29;20047;-81
2021/06/25 02:58:41;;;;;;;18.48;9.55;;;15.30;99.90;;;;;;4896987;29;20080;-81
2021/06/25 03:01:07;;;;;;;20.02;15.20;;;15.30;99.90;;;;;;4913853;29;20370;-81
2021/06/25 03:03:32;;;;;;;33.58;20.50;;;15.30;99.90;;;;;;4913649;29;20052;-81
2021/06/25 03:05:58;;;;;;;25.55;19.08;;;15.30;99.90;;;;;;4913439;29;20396;-81
2021/06/25 03:08:23;;;;;;;19.63;14.93;;;15.30;99.90;;;;;;4913690;29;20033;-82
2021/06/25 03:10:50;;;;;;;17.20;13.48;;;15.30;99.90;;;;;;4913271;29;20308;-81
2021/06/25 03:13:17;;;;;;;13.30;10.15;;;15.30;99.90;;;;;;4913781;29;20035;-81
2021/06/25 03:15:43;;;;;;;11.73;9.38;;;15.30;99.90;;;;;;4912919;29;20100;-82
2021/06/25 03:18:09;;;;;;;11.70;8.77;;;15.30;99.90;;;;;;4909284;29;20400;-81
2021/06/25 03:20:35;;;;;;;12.85;7.93;;;15.20;99.90;;;;;;4907485;29;20034;-81
2021/06/25 03:23:01;;;;;;;12.80;8.35;;;15.20;99.90;;;;;;4912547;29;20035;-81
2021/06/25 03:25:26;;;;;;;15.38;8.32;;;15.30;99.90;;;;;;4913411;29;20107;-81
2021/06/25 03:27:52;;;;;;;11.02;8.35;;;15.20;99.90;;;;;;4913299;29;20047;-81
2021/06/25 03:30:19;;;;;;;14.48;8.43;;;15.10;99.90;;;;;;4913126;29;20027;-81
2021/06/25 03:32:45;;;;;;;13.82;7.80;;;15.10;99.90;;;;;;4927873;29;20028;-80
2021/06/25 03:35:11;;;;;;;10.10;8.10;;;15.10;99.90;;;;;;4913370;29;20028;-81
2021/06/25 03:37:37;;;;;;;11.57;8.00;;;15.10;99.90;;;;;;4915015;29;20032;-81
2021/06/25 03:40:11;;;;;;;10.48;8.07;;;15.00;99.90;;;;;;4917554;29;20024;-81
2021/06/25 03:42:38;;;;;;;10.63;8.10;;;15.00;99.90;;;;;;4917328;29;20084;-81
2021/06/25 03:45:06;;;;;;;13.95;8.10;;;15.00;99.90;;;;;;4917507;29;20095;-81
2021/06/25 03:47:32;;;;;;;10.77;7.97;;;14.90;99.90;;;;;;4916442;29;20433;-81
2021/06/25 03:49:57;;;;;;;12.70;8.30;;;14.90;99.90;;;;;;4917038;29;20176;-81
2021/06/25 03:52:23;;;;;;;12.55;8.05;;;14.80;99.90;;;;;;4916639;29;20035;-81
2021/06/25 03:54:49;;;;;;;11.98;7.32;;;14.80;99.90;;;;;;4917039;29;20024;-81
2021/06/25 03:57:15;;;;;;;11.90;8.00;;;14.80;99.90;;;;;;4917046;29;20370;-82
2021/06/25 03:59:40;;;;;;;10.48;7.70;;;14.80;99.90;;;;;;4910062;29;20655;-81
2021/06/25 04:02:09;;;;;;;9.35;7.68;;;14.90;99.90;;;;;;4916760;29;20035;-81
2021/06/25 04:04:35;;;;;;;13.13;8.10;;;14.80;99.90;;;;;;4916922;29;20024;-81
2021/06/25 04:07:01;;;;;;;14.73;7.95;;;14.80;99.90;;;;;;4916065;29;20020;-81
2021/06/25 04:09:27;;;;;;;9.55;7.57;;;14.80;99.90;;;;;;4916864;29;20016;-81
2021/06/25 04:11:53;;;;;;;15.32;8.10;;;14.80;99.90;;;;;;4916380;29;20039;-81
2021/06/25 04:14:19;;;;;;;15.73;8.73;;;14.70;99.90;;;;;;4916789;29;20022;-81
2021/06/25 04:16:45;;;;;;;13.90;8.18;;;14.70;99.90;;;;;;4916315;29;20040;-81
2021/06/25 04:19:10;;;;;;;12.25;8.05;;;14.70;99.90;;;;;;4916483;29;20035;-81
2021/06/25 04:21:36;;;;;;;13.43;7.88;;;14.70;99.90;;;;;;4898038;29;20035;-80
2021/06/25 04:24:02;;;;;;;16.55;8.50;;;14.60;99.90;;;;;;4916515;29;20076;-81
2021/06/25 04:26:27;;;;;;;10.73;7.55;;;14.70;99.90;;;;;;4916160;29;20067;-81
2021/06/25 04:28:53;;;;;;;11.55;7.63;;;14.70;99.90;;;;;;4916611;29;20096;-81
2021/06/25 04:31:19;;;;;;;12.95;8.57;;;14.70;99.90;;;;;;4915861;29;20031;-81
2021/06/25 04:33:44;;;;;;;11.35;6.82;;;14.70;99.90;;;;;;4916550;29;20025;-81
2021/06/25 04:36:10;;;;;;;9.45;7.20;;;14.70;99.90;;;;;;4915015;29;20047;-81
2021/06/25 04:38:36;;;;;;;13.85;7.82;;;14.70;99.90;;;;;;4916574;29;20502;-81
2021/06/25 04:41:02;;;;;;;11.68;7.95;;;14.70;99.90;;;;;;4915810;29;20440;-81
2021/06/25 04:43:29;;;;;;;9.27;7.60;;;14.70;99.90;;;;;;4916029;29;20516;-81
2021/06/25 04:45:55;;;;;;;10.82;7.25;;;14.80;99.90;;;;;;4915638;29;20027;-81
2021/06/25 04:48:21;;;;;;;9.45;7.50;;;14.80;99.90;;;;;;4915917;29;20032;-81
2021/06/25 04:50:46;;;;;;;10.23;8.00;;;14.80;99.90;;;;;;4915679;29;20055;-81
2021/06/25 04:53:13;;;;;;;12.77;7.60;;;14.90;99.90;;;;;;4916102;29;20075;-81
2021/06/25 04:55:41;;;;;;;13.52;8.63;;;14.90;99.90;;;;;;4915634;29;20036;-81
2021/06/25 04:58:09;;;;;;;11.25;7.75;;;14.90;99.90;;;;;;4916056;29;20020;-81
2021/06/25 05:00:36;;;;;;;13.52;8.02;;;14.90;99.90;;;;;;4915616;29;20134;-81
2021/06/25 05:03:03;;;;;;;13.43;7.70;;;14.90;99.90;;;;;;4915894;29;20038;-81
2021/06/25 05:05:28;;;;;;;13.82;7.88;;;15.00;99.90;;;;;;4915543;29;20028;-81
2021/06/25 05:07:54;;;;;;;11.32;7.88;;;15.10;99.90;;;;;;4915737;29;20023;-81
2021/06/25 05:10:19;;;;;;;13.25;7.70;;;15.10;99.90;;;;;;4915585;29;20472;-81
2021/06/25 05:12:45;;;;;;;10.00;7.18;;;15.20;99.90;;;;;;4915674;29;20111;-81
2021/06/25 05:15:11;;;;;;;11.98;8.13;;;15.20;99.90;;;;;;4916218;29;20401;-82
2021/06/25 05:17:37;;;;;;;15.23;7.47;;;15.30;99.90;;;;;;4915190;29;20508;-81
2021/06/25 05:20:04;;;;;;;11.88;7.45;;;15.30;99.90;;;;;;4915652;29;20020;-81
2021/06/25 05:22:30;;;;;;;9.27;7.28;;;15.40;99.90;;;;;;4915014;29;20116;-81
2021/06/25 05:24:56;;;;;;;10.35;7.53;;;15.50;99.90;;;;;;4914367;29;20625;-81
2021/06/25 05:27:22;;;;;;;10.77;7.15;;;15.50;99.90;;;;;;4915176;29;20119;-82
2021/06/25 05:29:48;;;;;;;12.15;7.38;;;15.60;99.90;;;;;;4910426;29;20088;-82
2021/06/25 05:32:14;;;;;;;12.77;7.28;;;15.60;99.90;;;;;;4915179;29;20027;-82
2021/06/25 05:34:40;;;;;;;9.38;7.18;;;15.70;99.90;;;;;;4915395;29;20039;-84
2021/06/25 05:37:05;;;;;;;13.10;7.28;;;15.80;99.90;;;;;;4914633;29;20089;-85
2021/06/25 05:39:31;;;;;;;11.77;7.13;;;15.80;99.90;;;;;;4923545;29;20385;-85
2021/06/25 05:41:57;;;;;;;10.55;7.22;;;15.90;99.90;;;;;;4914214;29;20533;-85
2021/06/25 05:44:22;;;;;;;10.43;6.45;;;16.00;99.90;;;;;;4910445;29;20751;-85
2021/06/25 05:46:48;;;;;;;10.07;6.80;;;16.10;99.90;;;;;;4913968;29;20039;-85
2021/06/25 05:49:15;;;;;;;9.60;6.95;;;16.10;99.90;;;;;;4914386;29;20043;-85
2021/06/25 05:51:41;;;;;;;9.55;7.13;;;16.30;99.90;;;;;;4913991;29;20024;-85
2021/06/25 05:54:06;;;;;;;8.88;6.97;;;16.30;99.90;;;;;;4914296;29;20548;-85
2021/06/25 05:56:32;;;;;;;12.07;7.22;;;16.40;99.90;;;;;;4913718;29;20032;-85
2021/06/25 05:58:58;;;;;;;9.18;6.93;;;16.50;99.90;;;;;;4914172;29;20438;-85
2021/06/25 06:01:23;;;;;;;8.18;6.45;;;16.60;99.90;;;;;;4913430;29;20496;-85
2021/06/25 06:03:49;;;;;;;12.20;6.57;;;16.60;99.90;;;;;;4914438;29;20635;-85
2021/06/25 06:06:15;;;;;;;10.40;5.63;;;16.70;99.90;;;;;;4913993;29;20024;-85
2021/06/25 06:08:40;;;;;;;7.63;5.10;;;16.80;99.90;;;;;;4918174;29;20032;-85
2021/06/25 06:11:06;;;;;;;8.32;4.78;;;16.80;99.90;;;;;;4900624;29;20032;-85
2021/06/25 06:13:32;;;;;;;11.45;6.00;;;16.90;99.90;;;;;;4919516;29;20031;-85
2021/06/25 06:15:58;;;;;;;6.60;5.55;;;16.90;99.90;;;;;;4917479;29;20533;-85
2021/06/25 06:18:47;;;;;;;10.35;7.10;;;16.90;99.90;;;;;;4918892;29;20030;-85
2021/06/25 06:21:13;;;;;;;9.40;6.93;;;17.00;99.90;;;;;;4914341;29;20183;-85
2021/06/25 06:32:07;;;;;;;9.27;5.18;;;17.20;99.90;;;;;;4917287;29;20119;-85
2021/06/25 06:34:35;;;;;;;6.00;4.60;;;17.30;99.90;;;;;;4917894;29;20393;-85
2021/06/25 06:37:00;;;;;;;6.88;4.85;;;17.40;99.90;;;;;;4920271;29;20043;-85
2021/06/25 06:39:28;;;;;;;9.15;5.00;;;17.40;99.90;;;;;;4917755;29;20020;-85
2021/06/25 06:41:54;;;;;;;8.77;4.75;;;17.40;99.90;;;;;;4920245;29;20024;-85
2021/06/25 06:44:20;;;;;;;5.70;4.25;;;17.50;99.90;;;;;;4916231;29;20024;-85
2021/06/25 06:46:46;;;;;;;7.72;4.20;;;17.60;99.90;;;;;;4913736;29;20421;-85
2021/06/25 06:49:11;;;;;;;5.78;4.35;;;17.60;99.90;;;;;;4913542;29;20512;-85
2021/06/25 06:51:39;;;;;;;7.75;4.32;;;17.70;99.90;;;;;;4913757;29;20024;-85
2021/06/25 06:54:05;;;;;;;9.73;4.18;;;17.70;99.90;;;;;;4910664;29;20115;-86
2021/06/25 06:56:31;;;;;;;5.25;3.58;;;17.80;99.90;;;;;;4909117;29;20089;-87
2021/06/25 06:58:59;;;;;;;7.20;3.88;;;17.90;99.90;;;;;;4913955;29;20028;-70
2021/06/25 07:01:27;;;;;;;6.20;4.22;;;18.00;99.90;;;;;;4912225;29;20230;-70
2021/06/25 07:03:52;;;;;;;9.40;3.90;;;18.00;99.90;;;;;;4913050;29;20666;-71
2021/06/25 07:06:19;;;;;;;6.50;4.13;;;18.00;99.90;;;;;;4913091;29;20035;-70
2021/06/25 07:08:44;;;;;;;12.18;4.13;;;18.10;99.90;;;;;;4913407;29;20028;-70
2021/06/25 07:11:10;;;;;;;7.53;4.10;;;18.10;99.90;;;;;;4912802;29;20076;-70
2021/06/25 07:13:36;;;;;;;8.43;3.60;;;18.20;99.90;;;;;;4913222;29;20024;-71
2021/06/25 07:16:02;;;;;;;5.30;3.50;;;18.20;99.90;;;;;;4912792;29;20405;-70
2021/06/25 07:18:28;;;;;;;8.43;4.20;;;18.20;99.90;;;;;;4913118;29;20031;-70
2021/06/25 07:20:54;;;;;;;5.45;3.42;;;18.30;99.90;;;;;;4913056;29;20032;-70
2021/06/25 07:23:20;;;;;;;8.95;3.80;;;18.30;99.90;;;;;;4913089;29;20023;-70
2021/06/25 07:25:46;;;;;;;7.55;4.07;;;18.30;99.90;;;;;;4912748;29;20064;-71
2021/06/25 07:28:12;;;;;;;6.72;4.13;;;18.40;99.90;;;;;;4912961;29;20051;-70
2021/06/25 07:30:38;;;;;;;6.30;4.55;;;18.40;99.90;;;;;;4912797;29;20714;-71
2021/06/25 07:33:04;;;;;;;7.20;4.38;;;18.40;99.90;;;;;;4913100;29;20464;-71
2021/06/25 07:35:30;;;;;;;7.13;3.90;;;18.40;99.90;;;;;;4912637;29;20032;-69
2021/06/25 07:37:56;;;;;;;5.45;3.88;;;18.40;99.90;;;;;;4913046;29;20064;-69
2021/06/25 07:40:22;;;;;;;5.70;3.90;;;18.50;99.90;;;;;;4912987;29;20055;-70
2021/06/25 07:42:48;;;;;;;9.90;4.63;;;18.60;99.90;;;;;;4912901;29;20016;-69
2021/06/25 07:45:14;;;;;;;5.75;3.88;;;18.70;99.90;;;;;;4912836;29;20565;-70
2021/06/25 07:47:42;;;;;;;7.75;4.13;;;18.80;99.90;;;;;;4911971;29;20107;-69
2021/06/25 07:50:11;;;;;;;9.85;4.20;;;18.80;99.90;;;;;;4912513;29;20285;-72
2021/06/25 07:52:37;;;;;;;8.90;3.83;;;18.90;99.90;;;;;;4912027;29;20032;-72
2021/06/25 07:55:04;;;;;;;4.88;3.65;;;19.00;99.90;;;;;;4921203;29;20023;-72
2021/06/25 07:57:29;;;;;;;9.00;4.60;;;19.00;99.90;;;;;;4916136;29;20024;-72
2021/06/25 07:59:55;;;;;;;7.10;4.07;;;19.10;99.90;;;;;;4919903;29;20102;-71
2021/06/25 08:02:21;;;;;;;5.78;3.72;;;19.20;99.90;;;;;;4915986;29;20039;-72
2021/06/25 08:04:47;;;;;;;21.70;5.47;;;19.20;99.90;;;;;;4921463;29;20035;-72
2021/06/25 08:07:17;;;;;;;8.75;3.80;;;19.20;99.90;;;;;;4912685;29;20393;-72
2021/06/25 08:09:43;;;;;;;5.10;3.80;;;19.20;99.90;;;;;;4919077;29;20031;-75
2021/06/25 08:12:13;;;;;;;5.38;3.78;;;19.20;99.90;;;;;;4917968;29;20056;-72
2021/06/25 08:14:39;;;;;;;7.10;4.10;;;19.40;99.90;;;;;;4917192;29;20148;-72
2021/06/25 08:17:06;;;;;;;6.72;3.78;;;19.50;99.90;;;;;;4917536;29;20560;-72
2021/06/25 08:19:33;;;;;;;7.15;4.28;;;19.50;99.90;;;;;;4927727;29;20193;-72
2021/06/25 08:21:59;;;;;;;8.38;4.15;;;19.60;99.90;;;;;;4922042;29;20024;-72
2021/06/25 08:24:25;;;;;;;6.35;3.85;;;19.50;99.90;;;;;;4929179;29;20023;-72
2021/06/25 08:26:52;;;;;;;6.63;3.78;;;19.60;99.90;;;;;;4925571;29;20084;-72
2021/06/25 08:29:18;;;;;;;7.18;3.95;;;19.60;99.90;;;;;;4928862;29;20031;-72
2021/06/25 08:31:44;;;;;;;7.43;3.97;;;19.50;99.90;;;;;;4924838;29;20103;-72
2021/06/25 08:34:11;;;;;;;7.90;4.47;;;19.50;99.90;;;;;;4926620;29;20507;-72
2021/06/25 08:36:41;;;;;;;7.97;3.80;;;19.50;99.90;;;;;;4925176;29;20039;-72
2021/06/25 08:39:08;;;;;;;7.50;3.78;;;19.50;99.90;;;;;;4925253;29;20028;-72
2021/06/25 08:41:36;;;;;;;5.60;3.65;;;19.60;99.90;;;;;;4923832;29;20024;-72
2021/06/25 08:44:04;;;;;;;4.45;3.42;;;19.60;99.90;;;;;;4917350;29;20024;-72
2021/06/25 08:46:31;;;;;;;8.07;4.20;;;19.80;99.90;;;;;;4915113;29;20032;-72
2021/06/25 08:48:59;;;;;;;6.30;3.72;;;19.80;99.90;;;;;;4915689;29;20048;-72
2021/06/25 08:51:25;;;;;;;9.13;4.25;;;19.80;99.90;;;;;;4915805;29;20028;-72
2021/06/25 08:53:51;;;;;;;6.60;4.13;;;19.90;99.90;;;;;;4915510;29;20032;-72
2021/06/25 08:56:17;;;;;;;6.80;3.90;;;19.80;99.90;;;;;;4913331;29;20429;-72
2021/06/25 08:58:43;;;;;;;6.63;3.90;;;19.80;99.90;;;;;;4915632;29;20027;-72
2021/06/25 09:01:10;;;;;;;10.18;3.90;;;19.90;99.90;;;;;;4918739;29;20032;-72
2021/06/25 09:03:40;;;;;;;6.30;3.80;;;20.00;99.90;;;;;;4923339;29;20396;-72
2021/06/25 09:06:14;;;;;;;6.22;4.25;;;20.00;99.90;;;;;;4902310;29;20025;-72
2021/06/25 09:08:41;;;;;;;;;;;20.00;99.90;;;;;;4898954;29;20080;-73
2021/06/25 09:11:26;;;;;;;6.32;3.75;;;20.10;99.90;;;;;;4914815;29;19907;-72
2021/06/25 09:14:03;;;;;;;4.95;3.50;;;20.10;99.90;;;;;;4915353;29;20099;-72
2021/06/25 09:16:34;;;;;;;5.47;3.90;;;20.30;99.90;;;;;;4904536;29;20029;-72
2021/06/25 09:19:04;;;;;;;6.95;4.07;;;20.40;99.90;;;;;;4916224;29;20096;-73
2021/06/25 09:21:33;;;;;;;8.35;3.58;;;20.30;99.90;;;;;;4896567;29;20148;-73
2021/06/25 09:24:24;;;;;;;10.90;5.10;;;20.40;99.90;;;;;;4915343;29;20028;-72
2021/06/25 09:26:56;;;;;;;6.38;4.38;;;20.40;99.90;;;;;;4914678;29;20038;-70
2021/06/25 09:29:23;;;;;;;6.43;3.75;;;20.40;99.90;;;;;;4915002;29;20031;-71
2021/06/25 09:32:05;;;;;;;6.35;4.38;;;20.50;99.90;;;;;;4918136;29;20032;-70
2021/06/25 09:34:45;;;;;;;6.20;4.93;;;20.50;99.90;;;;;;4914006;29;20028;-70
2021/06/25 09:37:13;;;;;;;7.35;5.28;;;20.50;99.90;;;;;;4914196;29;20036;-70
2021/06/25 09:39:56;;;;;;;8.40;4.22;;;20.50;99.90;;;;;;4915039;29;20423;-71
2021/06/25 09:42:22;;;;;;;7.20;4.80;;;20.50;99.90;;;;;;4914497;29;20115;-70
2021/06/25 09:45:04;;;;;;;6.10;4.43;;;20.60;99.90;;;;;;4914996;29;20274;-70
2021/06/25 09:47:31;;;;;;;7.20;4.20;;;20.60;99.90;;;;;;4913072;29;20024;-70
2021/06/25 09:50:17;;;;;;;6.28;4.25;;;20.70;99.90;;;;;;4914447;29;20063;-70
2021/06/25 09:52:58;;;;;;;5.53;3.80;;;20.60;99.90;;;;;;4913913;29;20089;-70
2021/06/25 10:01:23;;;;;;;7.18;3.97;;;20.70;99.90;;;;;;4914304;29;19907;-70
2021/06/25 10:03:56;;;;;;;4.75;3.70;;;20.70;99.90;;;;;;4913560;29;20649;-70
2021/06/25 10:06:25;;;;;;;5.53;4.03;;;20.80;99.90;;;;;;4914078;29;20024;-70
2021/06/25 10:08:53;;;;;;;6.10;4.07;;;20.80;99.90;;;;;;4909462;29;20052;-70
2021/06/25 10:11:25;;;;;;;10.48;4.35;;;20.90;99.90;;;;;;4914030;29;20341;-70
2021/06/25 10:13:53;;;;;;;4.60;4.05;;;21.00;99.90;;;;;;4914477;29;20509;-70
2021/06/25 10:16:19;;;;;;;6.13;4.10;;;21.00;99.90;;;;;;4913713;29;20070;-70
2021/06/25 10:18:48;;;;;;;4.50;4.03;;;21.20;99.90;;;;;;4913954;29;20051;-70
2021/06/25 10:21:17;;;;;;;5.57;4.05;;;21.20;99.90;;;;;;4913567;29;20051;-70
2021/06/25 10:23:50;;;;;;;13.05;4.13;;;21.20;99.90;;;;;;4912911;29;20028;-70
2021/06/25 10:26:18;;;;;;;5.35;3.60;;;21.20;99.90;;;;;;4914005;29;20036;-70
2021/06/25 10:28:45;;;;;;;7.35;4.05;;;21.20;99.90;;;;;;4913992;29;20032;-70
2021/06/25 10:31:13;;;;;;;6.40;4.22;;;21.30;99.90;;;;;;4913515;29;20032;-70
2021/06/25 10:33:40;;;;;;;6.05;4.15;;;21.30;99.90;;;;;;4913730;29;20367;-70
2021/06/25 10:36:18;;;;;;;6.53;4.30;;;21.20;99.90;;;;;;4913468;29;20500;-70
2021/06/25 10:38:45;;;;;;;8.15;4.60;;;21.30;99.90;;;;;;4913466;29;20024;-71
2021/06/25 10:41:14;;;;;;;5.57;3.92;;;21.50;99.90;;;;;;4913579;29;20020;-71
2021/06/25 10:43:44;;;;;;;5.80;4.30;;;21.50;99.90;;;;;;4913761;29;20330;-71
2021/06/25 10:46:24;;;;;;;7.85;4.43;;;21.70;99.90;;;;;;4913193;29;20043;-71
2021/06/25 10:48:53;;;;;;;5.25;4.18;;;21.90;99.30;;;;;;4912981;29;20058;-71
2021/06/25 10:51:23;;;;;;;7.45;4.25;;;21.60;99.90;;;;;;4913418;29;20028;-71
2021/06/25 10:54:05;;;;;;;7.45;4.05;;;21.30;99.90;;;;;;4913430;29;20425;-71
2021/06/25 10:56:30;;;;;;;4.32;3.63;;;21.40;99.90;;;;;;4905264;29;20036;-70
2021/06/25 10:59:28;;;;;;;7.22;4.05;;;21.60;99.90;;;;;;4912987;29;20035;-71
2021/06/25 11:01:58;;;;;;;9.45;5.20;;;21.90;99.90;;;;;;4910177;29;20569;-71
2021/06/25 11:04:34;;;;;;;5.95;4.22;;;22.00;99.90;;;;;;4913415;29;20532;-71
2021/06/25 11:07:05;;;;;;;5.25;3.80;;;22.00;99.90;;;;;;4912955;29;20024;-71
2021/06/25 11:09:55;;;;;;;5.40;4.15;;;22.00;99.90;;;;;;4913493;29;20030;-71
2021/06/25 11:12:33;;;;;;;7.68;3.83;;;22.10;98.70;;;;;;4912980;29;20618;-70
2021/06/25 11:15:04;;;;;;;6.47;3.55;;;22.20;99.90;;;;;;4913329;29;20497;-71
2021/06/25 11:17:46;;;;;;;7.88;3.90;;;22.10;99.90;;;;;;4912793;29;20408;-71
2021/06/25 11:20:16;;;;;;;6.38;3.80;;;21.90;99.90;;;;;;4912777;29;20540;-71
2021/06/25 11:22:49;;;;;;;4.85;3.08;;;21.70;99.90;;;;;;4910901;29;20508;-71
2021/06/25 11:25:33;;;;;;;4.10;2.80;;;22.00;99.90;;;;;;4913508;29;20508;-71
2021/06/25 11:28:16;;;;;;;5.57;3.10;;;22.20;99.90;;;;;;4912472;29;20072;-71
2021/06/25 11:30:53;;;;;;;4.20;2.80;;;22.20;99.90;;;;;;4912524;29;20020;-71
2021/06/25 11:33:25;;;;;;;4.95;2.65;;;22.10;99.90;;;;;;4912993;29;20071;-71
2021/06/25 11:35:51;;;;;;;6.65;2.60;;;22.40;99.90;;;;;;4912649;29;20120;-71
2021/06/25 11:38:17;;;;;;;4.10;2.45;;;22.50;99.90;;;;;;4912957;29;20027;-71
2021/06/25 11:40:47;;;;;;;5.72;2.60;;;22.30;99.90;;;;;;4912637;29;20036;-71
2021/06/25 11:43:14;;;;;;;4.72;2.70;;;22.20;99.90;;;;;;4912920;29;20083;-71
2021/06/25 11:45:45;;;;;;;4.22;2.67;;;22.50;99.90;;;;;;4913141;29;20055;-71
2021/06/25 11:48:11;;;;;;;6.03;2.92;;;22.60;99.90;;;;;;4913119;29;20044;-71
2021/06/25 11:50:38;;;;;;;5.25;2.80;;;22.70;99.90;;;;;;4912240;29;20040;-70
2021/06/25 11:53:05;;;;;;;4.22;2.65;;;22.60;99.90;;;;;;4912820;29;20032;-71
2021/06/25 11:55:30;;;;;;;3.75;2.70;;;22.70;99.90;;;;;;4912703;29;20036;-71
2021/06/25 11:57:56;;;;;;;3.28;2.90;;;22.60;99.90;;;;;;4913056;29;20020;-71
2021/06/25 12:00:24;;;;;;;3.97;2.45;;;22.70;99.90;;;;;;4917116;29;20028;-71
2021/06/25 12:02:57;;;;;;;3.58;2.70;;;22.90;99.90;;;;;;4916313;29;20103;-71
2021/06/25 12:05:34;;;;;;;3.65;2.42;;;23.00;99.90;;;;;;4916720;29;20143;-71
2021/06/25 12:08:09;;;;;;;3.97;2.47;;;23.00;99.90;;;;;;4920763;29;20024;-71
2021/06/25 12:10:35;;;;;;;5.30;2.42;;;23.00;99.90;;;;;;4916417;29;20265;-71
2021/06/25 12:13:01;;;;;;;4.03;2.45;;;23.00;99.90;;;;;;4916534;29;20260;-71
2021/06/25 12:15:29;;;;;;;3.72;2.40;;;23.00;99.90;;;;;;4916206;29;20602;-71
2021/06/25 12:17:59;;;;;;;3.53;2.10;;;22.80;99.90;;;;;;4916910;29;20524;-72
2021/06/25 12:20:27;;;;;;;5.03;2.42;;;23.20;99.90;;;;;;4916346;29;20024;-72
2021/06/25 12:23:06;;;;;;;3.47;2.50;;;23.20;99.90;;;;;;4915737;29;20104;-71
2021/06/25 12:25:42;;;;;;;3.08;2.63;;;23.20;99.90;;;;;;4915988;29;20536;-71
2021/06/25 12:28:12;;;;;;;3.90;2.30;;;23.20;99.90;;;;;;4914480;29;20035;-71
2021/06/25 12:30:49;;;;;;;4.70;2.70;;;23.20;99.90;;;;;;4916138;29;20020;-71
2021/06/25 12:33:20;;;;;;;4.65;2.28;;;23.30;99.90;;;;;;4916396;29;20058;-71
2021/06/25 12:35:48;;;;;;;6.78;2.65;;;23.40;99.90;;;;;;4915529;29;20097;-71
2021/06/25 12:38:22;;;;;;;5.72;2.60;;;23.40;99.90;;;;;;4915949;29;20496;-71
2021/06/25 12:40:55;;;;;;;3.83;2.67;;;23.60;99.90;;;;;;4920798;29;20024;-72
2021/06/25 12:43:42;;;;;;;5.25;2.55;;;24.00;99.60;;;;;;4917633;29;20088;-71
2021/06/25 12:46:13;;;;;;;4.40;2.50;;;24.50;98.50;;;;;;4923522;29;20058;-72
2021/06/25 12:48:47;;;;;;;7.13;2.85;;;24.50;96.90;;;;;;4926695;29;20039;-71
2021/06/25 12:51:14;;;;;;;;;;;24.10;97.50;;;;;;4923181;29;20028;-71
2021/06/25 12:53:51;;;;;;;4.90;2.60;;;24.40;97.50;;;;;;4925071;29;19907;-71
2021/06/25 12:56:22;;;;;;;4.43;2.30;;;24.60;97.60;;;;;;4922489;29;20084;-71
2021/06/25 12:59:10;;;;;;;4.03;2.10;;;24.70;97.80;;;;;;4924781;29;20083;-71
2021/06/25 13:01:37;;;;;;;3.05;2.10;;;25.10;97.40;;;;;;4900041;29;20035;-71